createdAt,value
2023-07-06T00:00:23.367Z,15.58
2023-07-06T00:01:23.351Z,15.56
2023-07-06T00:02:23.362Z,15.56
2023-07-06T00:03:23.313Z,15.53
2023-07-06T00:04:23.306Z,15.55
2023-07-06T00:05:23.292Z,15.56
2023-07-06T00:06:23.271Z,15.55
2023-07-06T00:07:23.249Z,15.53
2023-07-06T00:08:23.249Z,15.51
2023-07-06T00:09:23.230Z,15.49
2023-07-06T00:10:23.250Z,15.49
2023-07-06T00:11:23.210Z,15.46
2023-07-06T00:12:23.201Z,15.43
2023-07-06T00:13:23.203Z,15.41
2023-07-06T00:14:23.170Z,15.38
2023-07-06T00:15:23.150Z,15.37
2023-07-06T00:16:23.183Z,15.35
2023-07-06T00:17:23.229Z,15.33
2023-07-06T00:18:23.157Z,15.31
2023-07-06T00:19:23.488Z,15.31
2023-07-06T00:20:23.086Z,15.30
2023-07-06T00:21:23.076Z,15.28
2023-07-06T00:22:23.085Z,15.25
2023-07-06T00:23:23.095Z,15.22
2023-07-06T00:24:23.040Z,15.20
2023-07-06T00:25:23.021Z,15.16
2023-07-06T00:26:23.011Z,15.18
2023-07-06T00:27:22.996Z,15.16
2023-07-06T00:28:23.001Z,15.15
2023-07-06T00:29:22.960Z,15.15
2023-07-06T00:30:22.968Z,15.09
2023-07-06T00:31:22.964Z,15.07
2023-07-06T00:32:22.953Z,15.04
2023-07-06T00:33:22.936Z,15.05
2023-07-06T00:34:22.943Z,15.05
2023-07-06T00:35:22.888Z,15.05
2023-07-06T00:36:22.888Z,15.01
2023-07-06T00:37:22.883Z,15.00
2023-07-06T00:38:22.935Z,15.00
2023-07-06T00:39:22.834Z,14.97
2023-07-06T00:40:22.866Z,14.97
2023-07-06T00:41:22.823Z,14.95
2023-07-06T00:42:22.814Z,14.94
2023-07-06T00:43:22.839Z,14.94
2023-07-06T00:44:22.807Z,14.93
2023-07-06T00:45:22.768Z,14.90
2023-07-06T00:46:22.831Z,14.86
2023-07-06T00:47:22.774Z,14.85
2023-07-06T00:48:22.752Z,14.85
2023-07-06T00:49:22.727Z,14.83
2023-07-06T00:50:22.727Z,14.80
2023-07-06T00:51:22.689Z,14.79
2023-07-06T00:52:22.691Z,14.78
2023-07-06T00:53:22.687Z,14.78
2023-07-06T00:54:22.658Z,14.74
2023-07-06T00:55:22.671Z,14.72
2023-07-06T00:56:22.634Z,14.72
2023-07-06T00:57:22.630Z,14.71
2023-07-06T00:58:22.610Z,14.71
2023-07-06T00:59:22.633Z,14.64
2023-07-06T01:00:22.618Z,14.66
2023-07-06T01:01:22.571Z,14.67
2023-07-06T01:02:22.586Z,14.67
2023-07-06T01:03:22.647Z,14.67
2023-07-06T01:04:22.556Z,14.67
2023-07-06T01:05:22.532Z,14.66
2023-07-06T01:06:22.494Z,14.64
2023-07-06T01:07:22.473Z,14.66
2023-07-06T01:08:22.472Z,14.64
2023-07-06T01:09:22.468Z,14.66
2023-07-06T01:10:22.519Z,14.69
2023-07-06T01:11:22.425Z,14.69
2023-07-06T01:12:22.447Z,14.72
2023-07-06T01:13:22.432Z,14.71
2023-07-06T01:14:22.389Z,14.69
2023-07-06T01:15:22.385Z,14.72
2023-07-06T01:16:22.428Z,14.72
2023-07-06T01:17:22.410Z,14.74
2023-07-06T01:18:22.344Z,14.72
2023-07-06T01:19:22.318Z,14.72
2023-07-06T01:20:22.332Z,14.74
2023-07-06T01:21:22.317Z,14.72
2023-07-06T01:22:22.280Z,14.69
2023-07-06T01:23:22.274Z,14.66
2023-07-06T01:24:22.264Z,14.61
2023-07-06T01:25:22.232Z,14.60
2023-07-06T01:26:22.239Z,14.57
2023-07-06T01:27:22.259Z,14.56
2023-07-06T01:28:22.222Z,14.54
2023-07-06T01:29:22.253Z,14.54
2023-07-06T01:30:22.187Z,14.57
2023-07-06T01:31:22.204Z,14.60
2023-07-06T01:32:22.243Z,14.60
2023-07-06T01:33:22.176Z,14.59
2023-07-06T01:34:22.221Z,14.59
2023-07-06T01:35:22.155Z,14.59
2023-07-06T01:36:22.107Z,14.61
2023-07-06T01:37:22.102Z,14.56
2023-07-06T01:38:22.075Z,14.54
2023-07-06T01:39:22.089Z,14.53
2023-07-06T01:40:22.042Z,14.53
2023-07-06T01:41:22.035Z,14.53
2023-07-06T01:42:22.033Z,14.52
2023-07-06T01:43:22.395Z,14.52
2023-07-06T01:44:22.000Z,14.48
2023-07-06T01:45:22.021Z,14.45
2023-07-06T01:46:21.997Z,14.44
2023-07-06T01:47:21.968Z,14.42
2023-07-06T01:48:21.942Z,14.42
2023-07-06T01:49:21.952Z,14.41
2023-07-06T01:50:21.951Z,14.39
2023-07-06T01:51:21.924Z,14.38
2023-07-06T01:52:21.907Z,14.38
2023-07-06T01:53:21.887Z,14.34
2023-07-06T01:54:21.937Z,14.34
2023-07-06T01:55:21.931Z,14.31
2023-07-06T01:56:21.845Z,14.35
2023-07-06T01:57:21.872Z,14.31
2023-07-06T01:58:21.833Z,14.35
2023-07-06T01:59:21.826Z,14.31
2023-07-06T02:00:21.823Z,14.31
2023-07-06T02:01:21.961Z,14.31
2023-07-06T02:02:21.913Z,14.30
2023-07-06T02:03:21.794Z,14.30
2023-07-06T02:04:21.883Z,14.29
2023-07-06T02:05:21.734Z,14.27
2023-07-06T02:06:21.728Z,14.27
2023-07-06T02:07:21.762Z,14.26
2023-07-06T02:08:21.698Z,14.26
2023-07-06T02:09:21.788Z,14.23
2023-07-06T02:10:21.688Z,14.21
2023-07-06T02:11:21.688Z,14.21
2023-07-06T02:12:21.659Z,14.19
2023-07-06T02:13:21.662Z,14.19
2023-07-06T02:14:21.618Z,14.17
2023-07-06T02:15:21.638Z,14.16
2023-07-06T02:16:21.658Z,14.13
2023-07-06T02:17:21.604Z,14.13
2023-07-06T02:18:21.568Z,14.12
2023-07-06T02:19:21.564Z,14.12
2023-07-06T02:20:21.568Z,14.11
2023-07-06T02:21:21.624Z,14.08
2023-07-06T02:22:21.522Z,14.09
2023-07-06T02:23:21.509Z,14.09
2023-07-06T02:24:21.491Z,14.11
2023-07-06T02:25:21.493Z,14.09
2023-07-06T02:26:21.480Z,14.09
2023-07-06T02:27:21.482Z,14.08
2023-07-06T02:28:22.163Z,14.08
2023-07-06T02:29:21.438Z,14.06
2023-07-06T02:30:21.394Z,14.08
2023-07-06T02:31:21.464Z,14.06
2023-07-06T02:32:21.477Z,14.06
2023-07-06T02:33:21.366Z,14.06
2023-07-06T02:34:21.340Z,14.05
2023-07-06T02:35:21.362Z,14.04
2023-07-06T02:36:21.338Z,14.02
2023-07-06T02:37:21.330Z,13.99
2023-07-06T02:38:21.349Z,13.98
2023-07-06T02:39:21.300Z,13.96
2023-07-06T02:40:21.278Z,13.94
2023-07-06T02:41:21.334Z,13.93
2023-07-06T02:42:21.251Z,13.93
2023-07-06T02:43:21.244Z,13.90
2023-07-06T02:44:21.267Z,13.90
2023-07-06T02:45:21.216Z,13.88
2023-07-06T02:46:21.340Z,13.88
2023-07-06T02:47:21.205Z,13.87
2023-07-06T02:48:21.186Z,13.86
2023-07-06T02:49:21.174Z,13.84
2023-07-06T02:50:21.213Z,13.84
2023-07-06T02:51:21.165Z,13.83
2023-07-06T02:52:21.137Z,13.80
2023-07-06T02:53:21.136Z,13.80
2023-07-06T02:54:21.101Z,13.79
2023-07-06T02:55:21.079Z,13.79
2023-07-06T02:56:21.085Z,13.76
2023-07-06T02:57:21.069Z,13.75
2023-07-06T02:58:21.036Z,13.75
2023-07-06T02:59:21.036Z,13.75
2023-07-06T03:00:21.027Z,13.72
2023-07-06T03:01:21.046Z,13.71
2023-07-06T03:02:21.033Z,13.71
2023-07-06T03:03:21.019Z,13.71
2023-07-06T03:04:20.949Z,13.69
2023-07-06T03:05:20.972Z,13.66
2023-07-06T03:06:20.949Z,13.65
2023-07-06T03:07:20.948Z,13.63
2023-07-06T03:08:20.920Z,13.63
2023-07-06T03:09:20.914Z,13.62
2023-07-06T03:10:20.941Z,13.59
2023-07-06T03:11:20.874Z,13.57
2023-07-06T03:12:20.920Z,13.55
2023-07-06T03:13:20.877Z,13.54
2023-07-06T03:14:20.826Z,13.53
2023-07-06T03:15:20.823Z,13.51
2023-07-06T03:16:20.853Z,13.51
2023-07-06T03:17:20.836Z,13.51
2023-07-06T03:18:20.790Z,13.51
2023-07-06T03:19:20.783Z,13.53
2023-07-06T03:20:20.892Z,13.51
2023-07-06T03:21:20.743Z,13.50
2023-07-06T03:22:20.719Z,13.51
2023-07-06T03:23:20.748Z,13.51
2023-07-06T03:24:20.707Z,13.51
2023-07-06T03:25:20.730Z,13.48
2023-07-06T03:26:20.759Z,13.47
2023-07-06T03:27:20.715Z,13.46
2023-07-06T03:28:20.670Z,13.46
2023-07-06T03:29:20.641Z,13.44
2023-07-06T03:30:20.649Z,13.44
2023-07-06T03:31:20.665Z,13.44
2023-07-06T03:32:20.665Z,13.39
2023-07-06T03:33:20.667Z,13.43
2023-07-06T03:34:20.574Z,13.43
2023-07-06T03:35:20.590Z,13.43
2023-07-06T03:36:20.571Z,13.44
2023-07-06T03:37:20.558Z,13.44
2023-07-06T03:38:20.520Z,13.44
2023-07-06T03:39:20.578Z,13.43
2023-07-06T03:40:20.494Z,13.41
2023-07-06T03:41:20.541Z,13.43
2023-07-06T03:42:20.507Z,13.43
2023-07-06T03:43:20.589Z,13.43
2023-07-06T03:44:20.471Z,13.43
2023-07-06T03:45:20.453Z,13.43
2023-07-06T03:46:20.525Z,13.43
2023-07-06T03:47:20.445Z,13.43
2023-07-06T03:48:20.441Z,13.43
2023-07-06T03:49:20.405Z,13.43
2023-07-06T03:50:20.376Z,13.44
2023-07-06T03:51:20.366Z,13.46
2023-07-06T03:52:20.340Z,13.43
2023-07-06T03:53:20.339Z,13.44
2023-07-06T03:54:20.331Z,13.43
2023-07-06T03:55:20.349Z,13.44
2023-07-06T03:56:20.298Z,13.44
2023-07-06T03:57:20.281Z,13.44
2023-07-06T03:58:20.288Z,13.44
2023-07-06T03:59:20.272Z,13.43
2023-07-06T04:00:20.292Z,13.44
2023-07-06T04:01:20.297Z,13.47
2023-07-06T04:02:20.209Z,13.46
2023-07-06T04:03:20.242Z,13.47
2023-07-06T04:04:30.440Z,13.47
2023-07-06T04:05:20.193Z,13.47
2023-07-06T04:06:20.179Z,13.48
2023-07-06T04:07:20.165Z,13.48
2023-07-06T04:08:20.140Z,13.51
2023-07-06T04:09:20.133Z,13.51
2023-07-06T04:10:20.127Z,13.51
2023-07-06T04:11:20.196Z,13.53
2023-07-06T04:12:20.089Z,13.53
2023-07-06T04:13:20.105Z,13.54
2023-07-06T04:14:20.055Z,13.54
2023-07-06T04:15:20.069Z,13.54
2023-07-06T04:16:20.169Z,13.51
2023-07-06T04:17:20.045Z,13.51
2023-07-06T04:18:20.018Z,13.53
2023-07-06T04:19:20.007Z,13.54
2023-07-06T04:20:20.262Z,13.54
2023-07-06T04:21:20.008Z,13.55
2023-07-06T04:22:19.956Z,13.55
2023-07-06T04:23:19.951Z,13.57
2023-07-06T04:24:19.949Z,13.55
2023-07-06T04:25:19.922Z,13.57
2023-07-06T04:26:19.927Z,13.59
2023-07-06T04:27:19.942Z,13.57
2023-07-06T04:28:19.879Z,13.57
2023-07-06T04:29:19.867Z,13.59
2023-07-06T04:30:19.853Z,13.62
2023-07-06T04:31:19.878Z,13.62
2023-07-06T04:32:19.859Z,13.65
2023-07-06T04:33:19.868Z,13.63
2023-07-06T04:34:19.799Z,13.65
2023-07-06T04:35:19.826Z,13.65
2023-07-06T04:36:19.794Z,13.65
2023-07-06T04:37:19.767Z,13.66
2023-07-06T04:38:19.759Z,13.66
2023-07-06T04:39:19.760Z,13.66
2023-07-06T04:40:19.725Z,13.63
2023-07-06T04:41:19.745Z,13.65
2023-07-06T04:42:19.693Z,13.66
2023-07-06T04:43:19.705Z,13.65
2023-07-06T04:44:19.677Z,13.65
2023-07-06T04:45:19.684Z,13.68
2023-07-06T04:46:19.728Z,13.68
2023-07-06T04:47:19.641Z,13.68
2023-07-06T04:48:19.662Z,13.69
2023-07-06T04:49:19.651Z,13.69
2023-07-06T04:50:19.626Z,13.71
2023-07-06T04:51:19.639Z,13.72
2023-07-06T04:52:19.567Z,13.69
2023-07-06T04:53:19.585Z,13.71
2023-07-06T04:54:19.554Z,13.72
2023-07-06T04:55:19.531Z,13.72
2023-07-06T04:56:19.530Z,13.75
2023-07-06T04:57:19.511Z,13.79
2023-07-06T04:58:19.523Z,13.81
2023-07-06T04:59:19.520Z,13.83
2023-07-06T05:00:19.488Z,13.84
2023-07-06T05:01:19.484Z,13.83
2023-07-06T05:02:19.447Z,13.83
2023-07-06T05:03:19.517Z,13.84
2023-07-06T05:04:19.408Z,13.83
2023-07-06T05:05:19.402Z,13.81
2023-07-06T05:06:19.399Z,13.80
2023-07-06T05:07:19.412Z,13.80
2023-07-06T05:08:19.404Z,13.81
2023-07-06T05:09:20.237Z,13.81
2023-07-06T05:10:19.334Z,13.80
2023-07-06T05:11:19.324Z,13.83
2023-07-06T05:12:19.328Z,13.83
2023-07-06T05:13:19.350Z,13.84
2023-07-06T05:14:19.289Z,13.86
2023-07-06T05:15:19.276Z,13.86
2023-07-06T05:16:19.274Z,13.88
2023-07-06T05:17:19.290Z,13.88
2023-07-06T05:18:19.247Z,13.91
2023-07-06T05:19:19.219Z,13.91
2023-07-06T05:20:19.219Z,13.94
2023-07-06T05:21:19.208Z,13.94
2023-07-06T05:22:19.384Z,13.94
2023-07-06T05:23:19.203Z,13.99
2023-07-06T05:24:19.192Z,13.99
2023-07-06T05:25:19.209Z,14.02
2023-07-06T05:26:19.135Z,14.02
2023-07-06T05:27:19.112Z,14.05
2023-07-06T05:28:19.166Z,14.05
2023-07-06T05:29:19.102Z,14.05
2023-07-06T05:30:21.966Z,14.08
2023-07-06T05:31:19.159Z,14.05
2023-07-06T05:32:19.067Z,14.05
2023-07-06T05:33:19.183Z,14.06
2023-07-06T05:34:19.027Z,14.08
2023-07-06T05:35:19.097Z,14.09
2023-07-06T05:36:19.799Z,14.08
2023-07-06T05:37:34.021Z,14.11
2023-07-06T05:38:19.964Z,14.11
2023-07-06T05:39:18.967Z,14.11
2023-07-06T05:40:18.970Z,14.11
2023-07-06T05:41:18.937Z,14.11
2023-07-06T05:42:18.963Z,14.12
2023-07-06T05:43:18.913Z,14.13
2023-07-06T05:44:18.951Z,14.13
2023-07-06T05:45:18.892Z,14.17
2023-07-06T05:46:18.970Z,14.16
2023-07-06T05:47:18.932Z,14.17
2023-07-06T05:48:18.872Z,14.17
2023-07-06T05:49:18.843Z,14.17
2023-07-06T05:50:18.843Z,14.16
2023-07-06T05:51:18.806Z,14.16
2023-07-06T05:52:18.797Z,14.16
2023-07-06T05:53:18.798Z,14.09
2023-07-06T05:54:18.783Z,14.13
2023-07-06T05:55:18.758Z,14.20
2023-07-06T05:56:18.743Z,14.21
2023-07-06T05:57:18.727Z,14.26
2023-07-06T05:58:18.738Z,14.26
2023-07-06T05:59:18.703Z,14.26
2023-07-06T06:00:18.713Z,14.29
2023-07-06T06:01:18.672Z,14.34
2023-07-06T06:02:18.889Z,14.36
2023-07-06T06:03:18.671Z,14.36
2023-07-06T06:04:18.698Z,14.41
2023-07-06T06:05:18.623Z,14.36
2023-07-06T06:06:18.622Z,14.38
2023-07-06T06:07:18.595Z,14.41
2023-07-06T06:08:18.596Z,14.42
2023-07-06T06:09:18.561Z,14.44
2023-07-06T06:10:18.587Z,14.48
2023-07-06T06:11:18.571Z,14.48
2023-07-06T06:12:18.533Z,14.49
2023-07-06T06:13:18.544Z,14.46
2023-07-06T06:14:18.545Z,14.46
2023-07-06T06:15:18.510Z,14.48
2023-07-06T06:16:18.553Z,14.53
2023-07-06T06:17:18.500Z,14.56
2023-07-06T06:18:18.486Z,14.57
2023-07-06T06:19:18.466Z,14.59
2023-07-06T06:20:18.431Z,14.64
2023-07-06T06:21:18.406Z,14.67
2023-07-06T06:22:18.415Z,14.75
2023-07-06T06:23:18.402Z,14.78
2023-07-06T06:24:18.411Z,14.79
2023-07-06T06:25:18.369Z,14.86
2023-07-06T06:26:18.364Z,14.90
2023-07-06T06:27:18.489Z,14.98
2023-07-06T06:28:18.372Z,14.98
2023-07-06T06:29:18.635Z,14.98
2023-07-06T06:30:18.385Z,15.01
2023-07-06T06:31:18.310Z,15.11
2023-07-06T06:32:18.346Z,15.13
2023-07-06T06:33:18.254Z,15.16
2023-07-06T06:34:18.275Z,15.20
2023-07-06T06:35:18.293Z,15.25
2023-07-06T06:36:18.254Z,15.27
2023-07-06T06:37:18.199Z,15.34
2023-07-06T06:38:18.191Z,15.40
2023-07-06T06:39:18.229Z,15.44
2023-07-06T06:40:18.180Z,15.48
2023-07-06T06:41:18.161Z,15.52
2023-07-06T06:42:18.164Z,15.56
2023-07-06T06:43:18.128Z,15.59
2023-07-06T06:44:18.192Z,15.64
2023-07-06T06:45:18.256Z,15.66
2023-07-06T06:46:18.176Z,15.71
2023-07-06T06:47:18.150Z,15.74
2023-07-06T06:48:18.176Z,15.74
2023-07-06T06:49:18.059Z,15.74
2023-07-06T06:50:18.435Z,15.78
2023-07-06T06:51:18.051Z,15.78
2023-07-06T06:52:19.886Z,15.81
2023-07-06T06:53:26.119Z,15.88
2023-07-06T06:54:18.207Z,15.92
2023-07-06T06:55:18.160Z,15.99
2023-07-06T06:56:18.343Z,16.01
2023-07-06T06:57:18.083Z,16.08
2023-07-06T06:58:18.059Z,16.13
2023-07-06T06:59:18.085Z,16.16
2023-07-06T07:00:18.033Z,16.18
2023-07-06T07:01:18.135Z,16.27
2023-07-06T07:02:21.053Z,16.29
2023-07-06T07:03:17.959Z,16.30
2023-07-06T07:04:18.200Z,16.32
2023-07-06T07:05:18.104Z,16.33
2023-07-06T07:06:18.193Z,16.33
2023-07-06T07:07:17.967Z,16.36
2023-07-06T07:08:17.868Z,16.37
2023-07-06T07:09:17.972Z,16.41
2023-07-06T07:10:17.893Z,16.45
2023-07-06T07:11:23.715Z,16.44
2023-07-06T07:12:19.996Z,16.47
2023-07-06T07:13:17.902Z,16.48
2023-07-06T07:14:18.620Z,16.47
2023-07-06T07:15:17.930Z,16.48
2023-07-06T07:16:17.946Z,16.48
2023-07-06T07:17:18.948Z,16.52
2023-07-06T07:18:17.844Z,16.54
2023-07-06T07:19:17.977Z,16.62
2023-07-06T07:20:18.455Z,16.67
2023-07-06T07:21:18.199Z,16.70
2023-07-06T07:22:18.796Z,16.73
2023-07-06T07:23:17.932Z,16.80
2023-07-06T07:24:17.771Z,16.87
2023-07-06T07:25:17.817Z,16.91
2023-07-06T07:26:17.737Z,16.96
2023-07-06T07:27:17.780Z,16.98
2023-07-06T07:28:17.816Z,16.98
2023-07-06T07:29:18.151Z,16.92
2023-07-06T07:30:17.653Z,16.91
2023-07-06T07:31:18.237Z,16.92
2023-07-06T07:32:21.798Z,17.00
2023-07-06T07:33:17.739Z,17.03
2023-07-06T07:34:17.550Z,17.06
2023-07-06T07:35:17.456Z,17.10
2023-07-06T07:36:17.455Z,17.12
2023-07-06T07:37:17.505Z,17.15
2023-07-06T07:38:17.515Z,17.17
2023-07-06T07:39:17.412Z,17.24
2023-07-06T07:40:34.011Z,17.30
2023-07-06T07:41:30.625Z,17.30
2023-07-06T07:44:23.790Z,17.42
2023-07-06T07:45:32.782Z,17.40
2023-07-06T07:46:24.478Z,17.47
2023-07-06T07:47:24.329Z,17.51
2023-07-06T07:48:23.629Z,17.51
2023-07-06T07:49:23.698Z,17.54
2023-07-06T07:50:23.892Z,17.55
2023-07-06T07:51:25.287Z,17.62
2023-07-06T07:52:24.021Z,17.63
2023-07-06T07:53:23.597Z,17.63
2023-07-06T07:54:23.849Z,17.63
2023-07-06T07:55:23.567Z,17.65
2023-07-06T07:56:23.636Z,17.74
2023-07-06T07:57:23.913Z,17.80
2023-07-06T07:58:23.757Z,17.87
2023-07-06T07:59:23.590Z,17.86
2023-07-06T08:00:23.514Z,17.91
2023-07-06T08:01:32.269Z,17.92
2023-07-06T08:02:23.473Z,17.94
2023-07-06T08:03:23.473Z,18.01
2023-07-06T08:04:23.718Z,17.99
2023-07-06T08:05:23.554Z,17.99
2023-07-06T08:06:23.845Z,17.99
2023-07-06T08:07:23.495Z,18.07
2023-07-06T08:08:23.343Z,18.07
2023-07-06T08:09:23.350Z,18.07
2023-07-06T08:10:23.591Z,18.07
2023-07-06T08:11:23.423Z,18.02
2023-07-06T08:12:23.332Z,18.04
2023-07-06T08:13:23.303Z,18.09
2023-07-06T08:14:23.253Z,18.14
2023-07-06T08:15:23.261Z,18.20
2023-07-06T08:16:23.353Z,18.25
2023-07-06T08:17:23.230Z,18.29
2023-07-06T08:18:23.182Z,18.35
2023-07-06T08:19:38.720Z,18.39
2023-07-06T08:20:41.687Z,18.41
2023-07-06T08:21:38.284Z,18.44
2023-07-06T08:22:24.147Z,18.49
2023-07-06T08:23:23.184Z,18.51
2023-07-06T08:24:23.146Z,18.53
2023-07-06T08:25:23.128Z,18.59
2023-07-06T08:26:23.100Z,18.65
2023-07-06T08:27:23.606Z,18.68
2023-07-06T08:28:23.042Z,18.65
2023-07-06T08:29:23.051Z,18.69
2023-07-06T08:30:23.017Z,18.75
2023-07-06T08:31:23.073Z,18.75
2023-07-06T08:32:23.466Z,18.78
2023-07-06T08:33:23.000Z,18.82
2023-07-06T08:34:23.013Z,18.87
2023-07-06T08:35:23.545Z,18.86
2023-07-06T08:36:23.031Z,18.79
2023-07-06T08:37:23.011Z,18.75
2023-07-06T08:38:22.979Z,18.74
2023-07-06T08:39:22.973Z,18.74
2023-07-06T08:40:22.979Z,18.71
2023-07-06T08:41:22.892Z,18.68
2023-07-06T08:42:22.922Z,18.68
2023-07-06T08:43:22.911Z,18.75
2023-07-06T08:44:22.834Z,18.79
2023-07-06T08:45:22.863Z,18.83
2023-07-06T08:46:22.842Z,18.84
2023-07-06T08:47:22.841Z,18.87
2023-07-06T08:48:22.784Z,18.89
2023-07-06T08:49:22.802Z,18.96
2023-07-06T08:50:22.794Z,19.06
2023-07-06T08:51:22.766Z,19.13
2023-07-06T08:52:22.744Z,19.16
2023-07-06T08:53:22.854Z,19.17
2023-07-06T08:54:23.103Z,19.17
2023-07-06T08:55:23.936Z,19.20
2023-07-06T08:56:23.117Z,19.21
2023-07-06T08:57:23.341Z,19.23
2023-07-06T08:58:22.730Z,19.25
2023-07-06T08:59:22.717Z,19.25
2023-07-06T09:00:22.850Z,19.27
2023-07-06T09:01:22.963Z,19.23
2023-07-06T09:02:22.763Z,19.20
2023-07-06T09:03:22.726Z,19.24
2023-07-06T09:04:22.600Z,19.28
2023-07-06T09:05:22.584Z,19.31
2023-07-06T09:06:22.610Z,19.35
2023-07-06T09:07:22.540Z,19.39
2023-07-06T09:08:24.041Z,19.40
2023-07-06T09:09:23.079Z,19.43
2023-07-06T09:10:25.767Z,19.39
2023-07-06T09:11:22.571Z,19.45
2023-07-06T09:12:22.525Z,19.52
2023-07-06T09:13:22.541Z,19.58
2023-07-06T09:14:22.444Z,19.60
2023-07-06T09:15:22.437Z,19.65
2023-07-06T09:16:22.450Z,19.70
2023-07-06T09:17:22.511Z,19.76
2023-07-06T09:18:22.437Z,19.76
2023-07-06T09:19:22.383Z,19.70
2023-07-06T09:20:22.376Z,19.65
2023-07-06T09:21:22.354Z,19.57
2023-07-06T09:22:22.355Z,19.55
2023-07-06T09:23:22.397Z,19.52
2023-07-06T09:24:22.305Z,19.49
2023-07-06T09:25:22.308Z,19.49
2023-07-06T09:26:32.920Z,19.55
2023-07-06T09:27:23.415Z,19.55
2023-07-06T09:28:22.282Z,19.61
2023-07-06T09:29:22.295Z,19.61
2023-07-06T09:30:22.235Z,19.62
2023-07-06T09:31:22.463Z,19.67
2023-07-06T09:32:22.245Z,19.71
2023-07-06T09:33:22.223Z,19.78
2023-07-06T09:34:22.223Z,19.79
2023-07-06T09:35:22.256Z,19.82
2023-07-06T09:36:22.197Z,19.85
2023-07-06T09:37:22.177Z,19.83
2023-07-06T09:38:22.132Z,19.80
2023-07-06T09:39:22.146Z,19.83
2023-07-06T09:40:22.140Z,19.85
2023-07-06T09:41:22.098Z,19.85
2023-07-06T09:42:22.086Z,19.87
2023-07-06T09:43:22.096Z,19.89
2023-07-06T09:44:22.048Z,19.87
2023-07-06T09:45:22.057Z,19.92
2023-07-06T09:46:22.055Z,19.95
2023-07-06T09:47:22.050Z,20.01
2023-07-06T09:48:22.013Z,20.02
2023-07-06T09:49:22.007Z,20.00
2023-07-06T09:50:22.047Z,19.97
2023-07-06T09:51:21.988Z,19.92
2023-07-06T09:52:21.973Z,19.86
2023-07-06T09:53:21.945Z,19.83
2023-07-06T09:54:21.923Z,19.78
2023-07-06T09:55:21.943Z,19.71
2023-07-06T09:56:21.890Z,19.70
2023-07-06T09:57:21.879Z,19.76
2023-07-06T09:58:21.917Z,19.85
2023-07-06T09:59:21.874Z,19.90
2023-07-06T10:00:21.975Z,19.95
2023-07-06T10:01:21.857Z,19.92
2023-07-06T10:02:21.815Z,19.98
2023-07-06T10:03:21.813Z,20.05
2023-07-06T10:04:21.806Z,20.07
2023-07-06T10:05:21.872Z,20.13
2023-07-06T10:06:21.765Z,20.17
2023-07-06T10:07:21.772Z,20.20
2023-07-06T10:08:21.731Z,20.19
2023-07-06T10:09:21.744Z,20.22
2023-07-06T10:10:21.920Z,20.33
2023-07-06T10:11:21.694Z,20.40
2023-07-06T10:12:21.679Z,20.42
2023-07-06T10:13:21.705Z,20.51
2023-07-06T10:14:21.670Z,20.57
2023-07-06T10:15:21.670Z,20.54
2023-07-06T10:16:21.657Z,20.53
2023-07-06T10:17:21.616Z,20.53
2023-07-06T10:18:21.608Z,20.53
2023-07-06T10:19:21.586Z,20.57
2023-07-06T10:20:21.584Z,20.60
2023-07-06T10:21:21.562Z,20.61
2023-07-06T10:22:21.540Z,20.63
2023-07-06T10:23:21.607Z,20.57
2023-07-06T10:24:21.523Z,20.38
2023-07-06T10:25:21.528Z,20.23
2023-07-06T10:26:21.508Z,20.17
2023-07-06T10:27:21.528Z,20.19
2023-07-06T10:28:21.586Z,20.16
2023-07-06T10:29:21.470Z,20.22
2023-07-06T10:30:21.438Z,20.27
2023-07-06T10:31:21.466Z,20.41
2023-07-06T10:32:21.418Z,20.51
2023-07-06T10:33:21.425Z,20.54
2023-07-06T10:34:21.401Z,20.57
2023-07-06T10:35:21.384Z,20.58
2023-07-06T10:36:21.395Z,20.75
2023-07-06T10:37:21.381Z,20.79
2023-07-06T10:38:21.346Z,20.81
2023-07-06T10:39:21.342Z,20.82
2023-07-06T10:40:21.307Z,20.82
2023-07-06T10:41:21.302Z,20.90
2023-07-06T10:42:21.282Z,20.93
2023-07-06T10:43:21.302Z,20.97
2023-07-06T10:44:21.307Z,21.05
2023-07-06T10:45:21.240Z,21.08
2023-07-06T10:46:21.249Z,21.09
2023-07-06T10:47:21.270Z,21.08
2023-07-06T10:48:21.198Z,21.11
2023-07-06T10:49:21.214Z,21.18
2023-07-06T10:50:21.207Z,21.27
2023-07-06T10:51:21.168Z,21.37
2023-07-06T10:52:21.168Z,21.38
2023-07-06T10:53:21.136Z,21.38
2023-07-06T10:54:21.169Z,21.36
2023-07-06T10:55:21.141Z,21.33
2023-07-06T10:56:21.103Z,21.37
2023-07-06T10:57:21.098Z,21.38
2023-07-06T10:58:21.064Z,21.40
2023-07-06T10:59:21.079Z,21.40
2023-07-06T11:00:21.050Z,21.45
2023-07-06T11:01:21.150Z,21.51
2023-07-06T11:02:21.054Z,21.51
2023-07-06T11:03:21.138Z,21.42
2023-07-06T11:04:21.010Z,21.28
2023-07-06T11:05:20.984Z,21.24
2023-07-06T11:06:20.979Z,21.24
2023-07-06T11:07:20.963Z,21.36
2023-07-06T11:08:20.982Z,21.46
2023-07-06T11:09:20.952Z,21.49
2023-07-06T11:10:20.932Z,21.51
2023-07-06T11:11:20.914Z,21.53
2023-07-06T11:12:20.912Z,21.61
2023-07-06T11:13:21.017Z,21.75
2023-07-06T11:14:20.894Z,21.77
2023-07-06T11:15:20.876Z,21.81
2023-07-06T11:16:20.866Z,21.83
2023-07-06T11:17:20.868Z,21.89
2023-07-06T11:18:20.809Z,21.90
2023-07-06T11:19:20.814Z,21.85
2023-07-06T11:20:20.806Z,21.89
2023-07-06T11:21:22.697Z,21.85
2023-07-06T11:22:20.769Z,21.83
2023-07-06T11:23:20.746Z,21.83
2023-07-06T11:24:20.954Z,21.89
2023-07-06T11:25:20.760Z,21.86
2023-07-06T11:26:20.996Z,21.90
2023-07-06T11:27:22.054Z,21.94
2023-07-06T11:28:21.029Z,21.96
2023-07-06T11:29:20.705Z,21.90
2023-07-06T11:30:20.672Z,21.83
2023-07-06T11:31:20.692Z,21.82
2023-07-06T11:32:20.644Z,21.89
2023-07-06T11:33:20.597Z,21.93
2023-07-06T11:34:20.605Z,22.01
2023-07-06T11:35:20.632Z,22.08
2023-07-06T11:36:20.577Z,22.14
2023-07-06T11:37:20.588Z,22.09
2023-07-06T11:38:20.584Z,22.09
2023-07-06T11:39:20.963Z,22.12
2023-07-06T11:40:20.598Z,22.19
2023-07-06T11:41:20.509Z,22.17
2023-07-06T11:42:20.503Z,22.06
2023-07-06T11:43:20.496Z,22.01
2023-07-06T11:44:20.505Z,22.01
2023-07-06T11:45:22.109Z,22.02
2023-07-06T11:46:20.584Z,22.02
2023-07-06T11:47:20.545Z,22.11
2023-07-06T11:48:20.429Z,22.09
2023-07-06T11:49:20.435Z,22.11
2023-07-06T11:50:20.401Z,22.12
2023-07-06T11:51:22.901Z,22.11
2023-07-06T11:52:20.384Z,22.14
2023-07-06T11:53:20.387Z,22.17
2023-07-06T11:54:20.382Z,22.17
2023-07-06T11:55:20.399Z,22.12
2023-07-06T11:56:20.367Z,22.15
2023-07-06T11:57:20.321Z,22.20
2023-07-06T11:58:20.332Z,22.20
2023-07-06T11:59:20.388Z,22.26
2023-07-06T12:00:20.414Z,22.20
2023-07-06T12:01:20.276Z,22.14
2023-07-06T12:02:20.272Z,22.12
2023-07-06T12:03:20.312Z,22.17
2023-07-06T12:04:20.247Z,22.17
2023-07-06T12:05:22.103Z,22.09
2023-07-06T12:06:20.193Z,22.14
2023-07-06T12:07:20.198Z,22.24
2023-07-06T12:08:20.173Z,22.29
2023-07-06T12:09:20.182Z,22.23
2023-07-06T12:10:20.161Z,22.21
2023-07-06T12:11:20.117Z,22.20
2023-07-06T12:12:20.123Z,22.12
2023-07-06T12:13:21.838Z,22.12
2023-07-06T12:14:20.108Z,22.11
2023-07-06T12:15:20.077Z,22.12
2023-07-06T12:16:20.088Z,22.17
2023-07-06T12:17:20.047Z,22.20
2023-07-06T12:18:20.058Z,22.24
2023-07-06T12:19:20.013Z,22.33
2023-07-06T12:20:20.001Z,22.42
2023-07-06T12:21:20.040Z,22.46
2023-07-06T12:22:19.983Z,22.45
2023-07-06T12:23:21.435Z,22.41
2023-07-06T12:24:19.972Z,22.44
2023-07-06T12:25:19.958Z,22.44
2023-07-06T12:26:19.940Z,22.42
2023-07-06T12:27:19.916Z,22.41
2023-07-06T12:28:19.927Z,22.41
2023-07-06T12:29:19.896Z,22.48
2023-07-06T12:30:19.898Z,22.56
2023-07-06T12:31:19.888Z,22.60
2023-07-06T12:32:19.856Z,22.63
2023-07-06T12:33:19.879Z,22.64
2023-07-06T12:34:19.844Z,22.69
2023-07-06T12:35:20.038Z,22.75
2023-07-06T12:36:19.833Z,22.75
2023-07-06T12:37:19.812Z,22.70
2023-07-06T12:38:19.784Z,22.70
2023-07-06T12:39:19.749Z,22.60
2023-07-06T12:40:19.746Z,22.52
2023-07-06T12:41:19.793Z,22.48
2023-07-06T12:42:19.716Z,22.46
2023-07-06T12:43:19.707Z,22.51
2023-07-06T12:44:19.698Z,22.61
2023-07-06T12:45:19.701Z,22.61
2023-07-06T12:46:19.778Z,22.60
2023-07-06T12:47:19.756Z,22.66
2023-07-06T12:48:19.657Z,22.75
2023-07-06T12:49:19.618Z,22.82
2023-07-06T12:50:19.663Z,22.91
2023-07-06T12:51:19.603Z,22.91
2023-07-06T12:52:19.586Z,22.91
2023-07-06T12:53:19.566Z,22.88
2023-07-06T12:54:19.572Z,22.84